Time;durP1;ratioP1;P1;durP2;ratioP2;P2;SDS_P1;SDS_P2;PMS_P1;PMS_P2;Temp;Humidity;BMP_temperature;BMP_pressure;BME280_temperature;BME280_humidity;BME280_pressure;Samples;Min_cycle;Max_cycle;Signal;HPM_P1;HPM_P2
2023/03/17 00:02:08;;;;;;;4.82;3.22;;;;;;;;;;5056679;28;20107;-56
2023/03/17 00:04:34;;;;;;;4.10;2.80;;;;;;;;;;5056950;28;20032;-53
2023/03/17 00:07:00;;;;;;;4.57;3.17;;;;;;;;;;5056902;28;20375;-53
2023/03/17 00:09:26;;;;;;;4.78;3.50;;;;;;;;;;5056887;28;20112;-54
2023/03/17 00:11:52;;;;;;;5.03;3.22;;;;;;;;;;5056486;28;20025;-56
2023/03/17 00:14:18;;;;;;;6.40;3.33;;;;;;;;;;5056873;28;20474;-57
2023/03/17 00:16:48;;;;;;;4.40;3.17;;;;;;;;;;5056964;28;20075;-54
2023/03/17 00:19:15;;;;;;;6.82;4.80;;;;;;;;;;5056288;28;20466;-57
2023/03/17 00:21:41;;;;;;;4.40;3.20;;;;;;;;;;5057022;28;20405;-58
2023/03/17 00:24:11;;;;;;;4.30;3.53;;;;;;;;;;5056237;28;20455;-58
2023/03/17 00:26:38;;;;;;;6.18;3.30;;;;;;;;;;5056206;28;20119;-58
2023/03/17 00:29:04;;;;;;;8.45;3.50;;;;;;;;;;5056164;28;20096;-56
2023/03/17 00:31:31;;;;;;;6.18;3.20;;;;;;;;;;5056074;28;20048;-56
2023/03/17 00:33:57;;;;;;;4.05;3.50;;;;;;;;;;5055495;28;20064;-57
2023/03/17 00:36:26;;;;;;;4.38;3.05;;;;;;;;;;5056201;28;20033;-57
2023/03/17 00:38:52;;;;;;;4.07;3.42;;;;;;;;;;5055639;28;20538;-56
2023/03/17 00:41:18;;;;;;;4.68;3.28;;;;;;;;;;5056649;28;20056;-57
2023/03/17 00:43:44;;;;;;;5.50;4.47;;;;;;;;;;5055977;28;20137;-56
2023/03/17 00:46:18;;;;;;;5.20;3.55;;;;;;;;;;5055825;28;20542;-55
2023/03/17 00:48:44;;;;;;;4.22;3.33;;;;;;;;;;5056145;28;20506;-58
2023/03/17 00:51:11;;;;;;;9.43;3.25;;;;;;;;;;5055727;28;20031;-58
2023/03/17 00:53:37;;;;;;;7.05;3.47;;;;;;;;;;5055067;28;20433;-57
2023/03/17 00:56:03;;;;;;;6.22;3.13;;;;;;;;;;5055687;28;20033;-57
2023/03/17 00:58:31;;;;;;;5.28;3.88;;;;;;;;;;5055682;28;20055;-57
2023/03/17 01:00:57;;;;;;;7.50;4.13;;;;;;;;;;5055553;28;20052;-57
2023/03/17 01:03:24;;;;;;;6.55;3.38;;;;;;;;;;5055834;28;20028;-54
2023/03/17 01:05:51;;;;;;;5.03;3.45;;;;;;;;;;5056091;28;20367;-57
2023/03/17 01:08:17;;;;;;;5.95;3.83;;;;;;;;;;5056007;28;20025;-57
2023/03/17 01:10:43;;;;;;;6.90;4.65;;;;;;;;;;5055682;28;20029;-55
2023/03/17 01:13:13;;;;;;;5.53;4.05;;;;;;;;;;5054895;28;20041;-57
2023/03/17 01:15:41;;;;;;;7.90;4.10;;;;;;;;;;5055866;28;20415;-55
2023/03/17 01:18:10;;;;;;;5.00;3.75;;;;;;;;;;5055730;28;20075;-57
2023/03/17 01:20:36;;;;;;;5.00;3.75;;;;;;;;;;5055785;28;20352;-56
2023/03/17 01:23:02;;;;;;;6.07;4.43;;;;;;;;;;5055503;28;20052;-58
2023/03/17 01:25:29;;;;;;;7.43;3.58;;;;;;;;;;5055179;28;20033;-57
2023/03/17 01:27:56;;;;;;;11.88;4.72;;;;;;;;;;5054872;28;20044;-57
2023/03/17 01:30:24;;;;;;;5.10;3.58;;;;;;;;;;5054924;28;20033;-55
2023/03/17 01:32:51;;;;;;;4.82;3.55;;;;;;;;;;5055007;28;20375;-56
2023/03/17 01:35:18;;;;;;;4.38;3.50;;;;;;;;;;5055313;28;20021;-56
2023/03/17 01:37:44;;;;;;;4.68;3.65;;;;;;;;;;5054460;28;20540;-56
2023/03/17 01:40:14;;;;;;;4.30;3.72;;;;;;;;;;5055120;28;20071;-54
2023/03/17 01:42:41;;;;;;;6.20;4.85;;;;;;;;;;5054869;28;20083;-54
2023/03/17 01:45:28;;;;;;;9.45;3.72;;;;;;;;;;5054867;28;20053;-54
2023/03/17 01:47:54;;;;;;;6.65;4.30;;;;;;;;;;5054789;28;20029;-57
2023/03/17 01:50:20;;;;;;;4.57;3.25;;;;;;;;;;5055359;28;20032;-58
2023/03/17 01:52:46;;;;;;;4.13;3.72;;;;;;;;;;5054646;28;20032;-57
2023/03/17 01:55:15;;;;;;;5.60;3.63;;;;;;;;;;5054978;28;20411;-57
2023/03/17 01:57:45;;;;;;;6.45;3.88;;;;;;;;;;5054164;28;20430;-58
2023/03/17 02:00:14;;;;;;;5.03;3.50;;;;;;;;;;5052958;28;20032;-52
2023/03/17 02:02:42;;;;;;;5.45;4.15;;;;;;;;;;5054592;28;20029;-57
2023/03/17 02:05:10;;;;;;;4.00;3.08;;;;;;;;;;5054845;28;20083;-58
2023/03/17 02:07:36;;;;;;;5.03;3.47;;;;;;;;;;5054554;28;20367;-57
2023/03/17 02:10:03;;;;;;;5.57;3.25;;;;;;;;;;5054312;28;20021;-55
2023/03/17 02:12:29;;;;;;;5.78;3.50;;;;;;;;;;5054456;28;20490;-56
2023/03/17 02:14:56;;;;;;;11.02;4.22;;;;;;;;;;5054263;28;20029;-55
2023/03/17 02:17:23;;;;;;;3.35;2.78;;;;;;;;;;5054640;28;20106;-51
2023/03/17 02:19:49;;;;;;;6.13;3.97;;;;;;;;;;5054176;28;20029;-54
2023/03/17 02:22:16;;;;;;;9.18;4.53;;;;;;;;;;5054132;28;20039;-57
2023/03/17 02:24:42;;;;;;;7.50;4.50;;;;;;;;;;5054362;28;20031;-52
2023/03/17 02:27:13;;;;;;;6.00;3.70;;;;;;;;;;5054342;28;20033;-56
2023/03/17 02:29:40;;;;;;;4.13;3.15;;;;;;;;;;5054237;28;20025;-55
2023/03/17 02:32:06;;;;;;;3.63;2.92;;;;;;;;;;5053895;28;20025;-55
2023/03/17 02:34:33;;;;;;;5.75;4.40;;;;;;;;;;5053897;28;20075;-57
2023/03/17 02:36:59;;;;;;;7.20;4.28;;;;;;;;;;5054154;28;20086;-57
2023/03/17 02:39:25;;;;;;;4.75;3.80;;;;;;;;;;5054073;28;20421;-53
2023/03/17 02:41:51;;;;;;;4.28;2.78;;;;;;;;;;5053815;28;20029;-55
2023/03/17 02:44:17;;;;;;;4.22;3.28;;;;;;;;;;5053691;28;20471;-54
2023/03/17 02:46:43;;;;;;;4.40;3.03;;;;;;;;;;5054117;28;20032;-56
2023/03/17 02:49:10;;;;;;;4.57;2.92;;;;;;;;;;5054328;28;20031;-54
2023/03/17 02:51:36;;;;;;;5.68;3.97;;;;;;;;;;5053711;28;20036;-53
2023/03/17 02:54:02;;;;;;;4.65;3.63;;;;;;;;;;5054004;28;20029;-53
2023/03/17 02:56:29;;;;;;;5.10;3.60;;;;;;;;;;5053655;28;20099;-53
2023/03/17 02:58:55;;;;;;;3.58;2.50;;;;;;;;;;5053657;28;20037;-51
2023/03/17 03:01:21;;;;;;;7.25;4.82;;;;;;;;;;5053573;28;20029;-51
2023/03/17 03:03:47;;;;;;;5.70;3.50;;;;;;;;;;5053570;28;20113;-52
2023/03/17 03:06:13;;;;;;;6.35;3.35;;;;;;;;;;5054441;28;20515;-56
2023/03/17 03:08:39;;;;;;;5.30;3.88;;;;;;;;;;5053576;28;20025;-53
2023/03/17 03:11:05;;;;;;;6.40;3.60;;;;;;;;;;5054018;28;20337;-52
2023/03/17 03:13:31;;;;;;;4.93;3.65;;;;;;;;;;5053448;28;20135;-54
2023/03/17 03:15:57;;;;;;;6.03;4.10;;;;;;;;;;5053693;28;20056;-56
2023/03/17 03:18:23;;;;;;;4.97;3.72;;;;;;;;;;5056531;28;20032;-53
2023/03/17 03:20:50;;;;;;;4.65;3.78;;;;;;;;;;5057542;28;20025;-55
2023/03/17 03:23:16;;;;;;;4.05;2.90;;;;;;;;;;5057436;28;20120;-53
2023/03/17 03:25:42;;;;;;;4.95;3.40;;;;;;;;;;5058048;28;20094;-52
2023/03/17 03:28:09;;;;;;;5.82;4.07;;;;;;;;;;5057882;28;20037;-55
2023/03/17 03:30:35;;;;;;;4.90;3.67;;;;;;;;;;5057351;28;20029;-55
2023/03/17 03:33:01;;;;;;;5.80;3.80;;;;;;;;;;5057809;28;20029;-55
2023/03/17 03:35:28;;;;;;;5.60;3.67;;;;;;;;;;5057031;28;20411;-55
2023/03/17 03:37:55;;;;;;;3.90;2.92;;;;;;;;;;5057126;28;20033;-55
2023/03/17 03:40:21;;;;;;;5.85;3.67;;;;;;;;;;5056827;28;20028;-57
2023/03/17 03:42:47;;;;;;;6.68;3.67;;;;;;;;;;5057150;28;20033;-56
2023/03/17 03:45:13;;;;;;;5.90;4.13;;;;;;;;;;5057657;28;20512;-57
2023/03/17 03:47:39;;;;;;;5.70;3.95;;;;;;;;;;5057105;28;20463;-53
2023/03/17 03:50:05;;;;;;;5.60;3.20;;;;;;;;;;5056944;28;20029;-54
2023/03/17 03:52:31;;;;;;;6.60;3.50;;;;;;;;;;5055989;28;20029;-55
2023/03/17 03:54:57;;;;;;;4.88;3.92;;;;;;;;;;5057172;28;20044;-52
2023/03/17 03:57:23;;;;;;;6.78;4.47;;;;;;;;;;5056412;28;20036;-53
2023/03/17 03:59:49;;;;;;;4.55;3.83;;;;;;;;;;5057323;28;20036;-55
2023/03/17 04:02:15;;;;;;;10.40;3.67;;;;;;;;;;5056705;28;20033;-54
2023/03/17 04:04:42;;;;;;;5.22;4.20;;;;;;;;;;5056731;28;20100;-53
2023/03/17 04:07:08;;;;;;;4.57;3.65;;;;;;;;;;5057136;28;20033;-56
2023/03/17 04:09:35;;;;;;;10.00;3.50;;;;;;;;;;5056092;28;20036;-56
2023/03/17 04:12:01;;;;;;;4.90;4.18;;;;;;;;;;5056484;28;20082;-57
2023/03/17 04:14:27;;;;;;;5.35;3.88;;;;;;;;;;5057111;28;20443;-54
2023/03/17 04:16:53;;;;;;;5.68;4.05;;;;;;;;;;5057506;28;20040;-57
2023/03/17 04:19:20;;;;;;;4.90;3.63;;;;;;;;;;5056570;28;20033;-59
2023/03/17 04:21:46;;;;;;;3.95;2.90;;;;;;;;;;5056608;28;20060;-56
2023/03/17 04:24:12;;;;;;;3.70;3.17;;;;;;;;;;5056237;28;20052;-56
2023/03/17 04:26:38;;;;;;;5.18;3.40;;;;;;;;;;5056882;28;20089;-56
2023/03/17 04:29:06;;;;;;;4.88;3.75;;;;;;;;;;5055890;28;20191;-56
2023/03/17 04:31:32;;;;;;;3.65;2.78;;;;;;;;;;5056118;28;20036;-56
2023/03/17 04:33:58;;;;;;;4.95;3.42;;;;;;;;;;5055925;28;20025;-55
2023/03/17 04:36:24;;;;;;;4.28;2.90;;;;;;;;;;5056682;28;20037;-56
2023/03/17 04:38:50;;;;;;;5.53;4.05;;;;;;;;;;5056545;28;20035;-56
2023/03/17 04:41:16;;;;;;;6.63;3.97;;;;;;;;;;5056073;28;20060;-55
2023/03/17 04:43:42;;;;;;;5.78;3.67;;;;;;;;;;5056026;28;20532;-56
2023/03/17 04:46:08;;;;;;;5.00;3.40;;;;;;;;;;5054723;28;20020;-57
2023/03/17 04:48:34;;;;;;;4.47;3.00;;;;;;;;;;5055531;28;20087;-54
2023/03/17 04:51:01;;;;;;;4.68;3.42;;;;;;;;;;5056399;28;20025;-56
2023/03/17 04:53:27;;;;;;;5.43;3.08;;;;;;;;;;5055768;28;20021;-56
2023/03/17 04:55:53;;;;;;;4.95;3.10;;;;;;;;;;5056583;28;20033;-56
2023/03/17 04:58:19;;;;;;;5.72;3.67;;;;;;;;;;5055686;28;20493;-53
2023/03/17 05:00:45;;;;;;;5.68;3.83;;;;;;;;;;5055060;28;20150;-56
2023/03/17 05:03:11;;;;;;;5.40;3.42;;;;;;;;;;5055654;28;20487;-53
2023/03/17 05:05:37;;;;;;;6.03;4.03;;;;;;;;;;5055694;28;20025;-55
2023/03/17 05:08:03;;;;;;;4.35;3.42;;;;;;;;;;5055575;28;20025;-56
2023/03/17 05:10:29;;;;;;;8.75;5.07;;;;;;;;;;5055574;28;20104;-56
2023/03/17 05:12:55;;;;;;;4.25;3.65;;;;;;;;;;5055282;28;20049;-54
2023/03/17 05:15:21;;;;;;;6.10;3.97;;;;;;;;;;5055452;28;20025;-57
2023/03/17 05:17:47;;;;;;;5.63;4.28;;;;;;;;;;5055360;28;20033;-56
2023/03/17 05:20:14;;;;;;;5.53;4.05;;;;;;;;;;5055828;28;20025;-54
2023/03/17 05:22:40;;;;;;;6.43;4.03;;;;;;;;;;5055501;28;20078;-56
2023/03/17 05:25:06;;;;;;;6.28;3.88;;;;;;;;;;5055478;28;20054;-53
2023/03/17 05:27:32;;;;;;;4.65;3.10;;;;;;;;;;5054472;28;20083;-56
2023/03/17 05:29:58;;;;;;;5.15;4.25;;;;;;;;;;5055082;28;20025;-57
2023/03/17 05:32:24;;;;;;;4.22;3.08;;;;;;;;;;5055033;28;20112;-55
2023/03/17 05:34:50;;;;;;;6.80;3.85;;;;;;;;;;5055057;28;20024;-54
2023/03/17 05:37:17;;;;;;;4.85;3.63;;;;;;;;;;5054912;28;20515;-57
2023/03/17 05:39:43;;;;;;;15.43;4.57;;;;;;;;;;5055089;28;20033;-55
2023/03/17 05:42:09;;;;;;;4.68;3.95;;;;;;;;;;5054724;28;20420;-56
2023/03/17 05:44:35;;;;;;;4.72;3.60;;;;;;;;;;5055100;28;20071;-56
2023/03/17 05:47:01;;;;;;;5.22;4.10;;;;;;;;;;5055359;28;20081;-56
2023/03/17 05:49:28;;;;;;;5.85;4.47;;;;;;;;;;5055024;28;20112;-53
2023/03/17 05:51:54;;;;;;;4.90;3.50;;;;;;;;;;5055397;28;20110;-56
2023/03/17 05:54:22;;;;;;;4.88;3.53;;;;;;;;;;5054957;28;20036;-56
2023/03/17 05:56:48;;;;;;;4.05;3.45;;;;;;;;;;5054557;28;20103;-52
2023/03/17 05:59:15;;;;;;;4.90;3.63;;;;;;;;;;5055075;28;20029;-53
2023/03/17 06:01:41;;;;;;;3.05;2.70;;;;;;;;;;5054456;28;20086;-51
2023/03/17 06:04:08;;;;;;;4.68;2.65;;;;;;;;;;5054499;28;20455;-55
2023/03/17 06:06:33;;;;;;;2.95;2.20;;;;;;;;;;5054669;28;20024;-55
2023/03/17 06:09:00;;;;;;;4.32;2.90;;;;;;;;;;5054338;28;20036;-56
2023/03/17 06:11:26;;;;;;;3.83;2.70;;;;;;;;;;5055044;28;20116;-55
2023/03/17 06:13:52;;;;;;;3.38;2.30;;;;;;;;;;5054854;28;20434;-56
2023/03/17 06:16:18;;;;;;;5.68;2.70;;;;;;;;;;5054464;28;20082;-57
2023/03/17 06:18:44;;;;;;;5.32;2.72;;;;;;;;;;5054224;28;20364;-56
2023/03/17 06:21:11;;;;;;;3.40;2.58;;;;;;;;;;5054196;28;20033;-56
2023/03/17 06:23:37;;;;;;;5.28;2.25;;;;;;;;;;5054389;28;20106;-56
2023/03/17 06:26:03;;;;;;;4.03;2.47;;;;;;;;;;5054449;28;20064;-56
2023/03/17 06:28:29;;;;;;;3.67;2.38;;;;;;;;;;5054199;28;20437;-52
2023/03/17 06:30:55;;;;;;;3.75;1.95;;;;;;;;;;5053943;28;20021;-57
2023/03/17 06:33:21;;;;;;;2.55;1.85;;;;;;;;;;5054422;28;20021;-55
2023/03/17 06:35:47;;;;;;;3.67;2.22;;;;;;;;;;5054276;28;20036;-57
2023/03/17 06:38:13;;;;;;;2.67;1.88;;;;;;;;;;5054121;28;20035;-57
2023/03/17 06:40:40;;;;;;;2.80;1.83;;;;;;;;;;5054186;28;20082;-52
2023/03/17 06:43:06;;;;;;;4.07;2.25;;;;;;;;;;5053856;28;20033;-53
2023/03/17 06:45:32;;;;;;;3.55;1.75;;;;;;;;;;5054272;28;20025;-56
2023/03/17 06:47:58;;;;;;;3.08;1.85;;;;;;;;;;5054199;28;20052;-54
2023/03/17 06:50:24;;;;;;;2.75;1.40;;;;;;;;;;5053735;28;20459;-55
2023/03/17 06:52:51;;;;;;;3.20;2.00;;;;;;;;;;5053570;28;20529;-53
2023/03/17 06:55:17;;;;;;;4.20;1.92;;;;;;;;;;5054114;28;20025;-58
2023/03/17 06:57:43;;;;;;;4.03;2.95;;;;;;;;;;5053925;28;20067;-54
2023/03/17 07:00:11;;;;;;;7.18;2.38;;;;;;;;;;5054182;28;20154;-55
2023/03/17 07:02:37;;;;;;;2.97;2.10;;;;;;;;;;5053726;28;20116;-54
2023/03/17 07:05:05;;;;;;;2.60;1.63;;;;;;;;;;5054260;28;20040;-56
2023/03/17 07:07:31;;;;;;;4.10;2.05;;;;;;;;;;5053880;28;20064;-53
2023/03/17 07:09:57;;;;;;;2.85;2.20;;;;;;;;;;5053620;28;20487;-56
2023/03/17 07:12:23;;;;;;;4.85;3.22;;;;;;;;;;5053818;28;20080;-56
2023/03/17 07:14:49;;;;;;;3.05;1.92;;;;;;;;;;5053628;28;20031;-55
2023/03/17 07:17:15;;;;;;;3.90;2.17;;;;;;;;;;5052750;28;20098;-56
2023/03/17 07:19:41;;;;;;;3.65;2.67;;;;;;;;;;5053461;28;20438;-56
2023/03/17 07:22:09;;;;;;;3.78;2.33;;;;;;;;;;5053458;28;20025;-53
2023/03/17 07:24:35;;;;;;;4.05;2.25;;;;;;;;;;5053333;28;20032;-57
2023/03/17 07:27:01;;;;;;;4.88;1.80;;;;;;;;;;5054277;28;20375;-57
2023/03/17 07:29:28;;;;;;;7.72;2.65;;;;;;;;;;5053485;28;20039;-57
2023/03/17 07:31:53;;;;;;;3.92;1.83;;;;;;;;;;5053270;28;20025;-54
2023/03/17 07:34:19;;;;;;;3.35;2.10;;;;;;;;;;5053535;28;20025;-56
2023/03/17 07:36:45;;;;;;;5.00;3.30;;;;;;;;;;5053276;28;20033;-57
2023/03/17 07:39:12;;;;;;;4.50;2.38;;;;;;;;;;5053159;28;20356;-57
2023/03/17 07:41:38;;;;;;;3.15;2.17;;;;;;;;;;5053587;28;20072;-57
2023/03/17 07:44:04;;;;;;;3.70;2.53;;;;;;;;;;5053698;28;20033;-57
2023/03/17 07:46:30;;;;;;;3.83;2.22;;;;;;;;;;5053517;28;20025;-58
2023/03/17 07:48:56;;;;;;;3.55;2.38;;;;;;;;;;5052903;28;20516;-58
2023/03/17 07:51:26;;;;;;;3.55;2.03;;;;;;;;;;5052046;28;20482;-55
2023/03/17 07:53:52;;;;;;;3.70;2.42;;;;;;;;;;5053642;28;20118;-55
2023/03/17 07:56:18;;;;;;;2.90;2.15;;;;;;;;;;5052833;28;20021;-56
2023/03/17 07:58:44;;;;;;;4.75;2.35;;;;;;;;;;5053246;28;20163;-57
2023/03/17 08:01:10;;;;;;;3.90;2.22;;;;;;;;;;5053861;28;20017;-57
2023/03/17 08:03:36;;;;;;;4.05;2.03;;;;;;;;;;5053903;28;20025;-57
2023/03/17 08:06:02;;;;;;;3.08;1.92;;;;;;;;;;5056741;28;20024;-57
2023/03/17 08:08:28;;;;;;;3.13;2.30;;;;;;;;;;5056978;28;20032;-57
2023/03/17 08:10:58;;;;;;;2.83;1.90;;;;;;;;;;5057404;28;20375;-57
2023/03/17 08:13:24;;;;;;;3.00;2.00;;;;;;;;;;5056686;28;20057;-57
2023/03/17 08:15:51;;;;;;;3.05;1.88;;;;;;;;;;5057114;28;20025;-56
2023/03/17 08:18:17;;;;;;;4.00;2.50;;;;;;;;;;5056497;28;20029;-56
2023/03/17 08:20:43;;;;;;;3.95;2.13;;;;;;;;;;5056156;28;20475;-57
2023/03/17 08:23:10;;;;;;;3.38;1.83;;;;;;;;;;5056251;28;20032;-57
2023/03/17 08:25:36;;;;;;;3.97;2.15;;;;;;;;;;5056087;28;20033;-57
2023/03/17 08:28:03;;;;;;;3.20;1.73;;;;;;;;;;5056246;28;20058;-56
2023/03/17 08:30:29;;;;;;;2.67;1.67;;;;;;;;;;5056120;28;20093;-57
2023/03/17 08:32:55;;;;;;;3.08;2.03;;;;;;;;;;5056124;28;20029;-57
2023/03/17 08:35:21;;;;;;;2.70;1.85;;;;;;;;;;5056401;28;20100;-57
2023/03/17 08:37:47;;;;;;;3.20;1.90;;;;;;;;;;5056531;28;20029;-57
2023/03/17 08:40:16;;;;;;;2.70;1.90;;;;;;;;;;5055834;28;20028;-57
2023/03/17 08:42:42;;;;;;;3.70;2.22;;;;;;;;;;5056001;28;20110;-57
2023/03/17 08:45:08;;;;;;;3.22;2.25;;;;;;;;;;5056347;28;20035;-58
2023/03/17 08:47:35;;;;;;;6.07;2.17;;;;;;;;;;5056161;28;20036;-58
2023/03/17 08:50:01;;;;;;;3.85;1.77;;;;;;;;;;5056009;28;20025;-58
2023/03/17 08:52:28;;;;;;;6.25;1.95;;;;;;;;;;5055923;28;20087;-58
2023/03/17 08:54:54;;;;;;;3.15;1.65;;;;;;;;;;5055591;28;20189;-58
2023/03/17 08:57:21;;;;;;;4.97;1.35;;;;;;;;;;5055729;28;20029;-58
2023/03/17 08:59:47;;;;;;;6.70;1.85;;;;;;;;;;5055972;28;20455;-58
2023/03/17 09:02:14;;;;;;;4.82;2.47;;;;;;;;;;5056310;28;20025;-58
2023/03/17 09:04:41;;;;;;;3.00;1.70;;;;;;;;;;5055634;28;20032;-58
2023/03/17 09:07:07;;;;;;;3.42;2.10;;;;;;;;;;5056397;28;20112;-59
2023/03/17 09:09:34;;;;;;;2.53;1.60;;;;;;;;;;5055490;28;20033;-59
2023/03/17 09:12:01;;;;;;;4.00;1.92;;;;;;;;;;5055189;28;20078;-58
2023/03/17 09:14:27;;;;;;;3.67;1.55;;;;;;;;;;5055566;28;20021;-59
2023/03/17 09:16:54;;;;;;;2.50;1.38;;;;;;;;;;5055044;28;20029;-58
2023/03/17 09:19:20;;;;;;;2.10;1.33;;;;;;;;;;5055252;28;20064;-58
2023/03/17 09:21:47;;;;;;;3.28;1.83;;;;;;;;;;5055332;28;20028;-57
2023/03/17 09:24:13;;;;;;;2.90;1.52;;;;;;;;;;5055588;28;20027;-58
2023/03/17 09:26:39;;;;;;;4.07;1.23;;;;;;;;;;5056137;28;20033;-59
2023/03/17 09:29:06;;;;;;;2.97;1.40;;;;;;;;;;5054735;28;20437;-56
2023/03/17 09:31:32;;;;;;;4.95;1.67;;;;;;;;;;5055040;28;20075;-56
2023/03/17 09:33:58;;;;;;;4.25;1.55;;;;;;;;;;5055093;28;20029;-58
2023/03/17 09:36:24;;;;;;;4.35;2.00;;;;;;;;;;5054740;28;20067;-58
2023/03/17 09:38:51;;;;;;;2.80;1.73;;;;;;;;;;5055457;28;20033;-58
2023/03/17 09:41:22;;;;;;;3.05;1.60;;;;;;;;;;5055418;28;20112;-57
2023/03/17 09:44:06;;;;;;;2.38;1.20;;;;;;;;;;5054473;28;20479;-58
2023/03/17 09:46:32;;;;;;;2.45;1.50;;;;;;;;;;5055149;28;20089;-58
2023/03/17 09:49:02;;;;;;;1.67;0.85;;;;;;;;;;5054515;28;20471;-58
2023/03/17 09:51:30;;;;;;;2.13;1.60;;;;;;;;;;5054677;28;20072;-56
2023/03/17 09:54:01;;;;;;;3.45;1.77;;;;;;;;;;5054294;28;20036;-58
2023/03/17 09:56:34;;;;;;;4.60;0.98;;;;;;;;;;5054634;28;20052;-58
2023/03/17 09:59:05;;;;;;;3.20;1.75;;;;;;;;;;5055064;28;20348;-58
2023/03/17 10:01:31;;;;;;;6.85;2.30;;;;;;;;;;5055184;28;20021;-58
2023/03/17 10:03:57;;;;;;;2.47;1.30;;;;;;;;;;5054699;28;20529;-58
2023/03/17 10:06:23;;;;;;;3.25;1.38;;;;;;;;;;5054453;28;20032;-58
2023/03/17 10:09:18;;;;;;;2.40;1.20;;;;;;;;;;5054343;28;20029;-58
2023/03/17 10:11:48;;;;;;;2.90;1.55;;;;;;;;;;5035152;28;20045;-58
2023/03/17 10:14:26;;;;;;;3.85;0.85;;;;;;;;;;5055046;28;20123;-58
2023/03/17 10:16:55;;;;;;;5.32;2.42;;;;;;;;;;5054462;28;20032;-58
2023/03/17 10:19:27;;;;;;;1.67;0.85;;;;;;;;;;5054186;28;20033;-59
2023/03/17 10:21:57;;;;;;;1.67;1.02;;;;;;;;;;5054038;28;20434;-59
2023/03/17 10:24:24;;;;;;;2.25;1.30;;;;;;;;;;5053936;28;20029;-57
2023/03/17 10:26:52;;;;;;;1.95;1.20;;;;;;;;;;5054405;28;20079;-57
2023/03/17 10:29:22;;;;;;;4.25;1.50;;;;;;;;;;5053895;28;20021;-57
2023/03/17 10:31:49;;;;;;;3.28;1.17;;;;;;;;;;5054008;28;20025;-58
2023/03/17 10:34:20;;;;;;;2.50;1.27;;;;;;;;;;5054051;28;20017;-58
2023/03/17 10:36:48;;;;;;;5.20;1.05;;;;;;;;;;5054270;28;20025;-58
2023/03/17 10:39:17;;;;;;;5.45;0.93;;;;;;;;;;5053884;28;20437;-58
2023/03/17 10:41:52;;;;;;;2.25;0.95;;;;;;;;;;5054488;28;20040;-58
2023/03/17 10:44:28;;;;;;;1.48;0.70;;;;;;;;;;5054015;28;20336;-58
2023/03/17 10:46:55;;;;;;;1.77;1.00;;;;;;;;;;5053890;28;20044;-58
2023/03/17 10:49:23;;;;;;;1.48;0.80;;;;;;;;;;5054091;28;20028;-59
2023/03/17 10:51:51;;;;;;;2.20;1.10;;;;;;;;;;5053068;28;20032;-58
2023/03/17 10:54:18;;;;;;;2.42;1.30;;;;;;;;;;5053697;28;20050;-59
2023/03/17 10:56:46;;;;;;;2.85;1.25;;;;;;;;;;5053685;28;20025;-59
2023/03/17 10:59:19;;;;;;;2.35;1.33;;;;;;;;;;5054013;28;20039;-60
2023/03/17 11:01:52;;;;;;;5.35;1.05;;;;;;;;;;5054053;28;20024;-60
2023/03/17 11:04:41;;;;;;;3.17;1.27;;;;;;;;;;5054165;28;20371;-60
2023/03/17 11:07:17;;;;;;;6.97;1.65;;;;;;;;;;5053624;28;20025;-57
2023/03/17 11:09:48;;;;;;;1.40;0.70;;;;;;;;;;5053956;28;20378;-57
2023/03/17 11:12:35;;;;;;;2.20;1.50;;;;;;;;;;5054111;28;20091;-58
2023/03/17 11:15:05;;;;;;;4.10;1.25;;;;;;;;;;5053494;28;20036;-59
2023/03/17 11:17:38;;;;;;;2.60;1.80;;;;;;;;;;5053457;28;20078;-59
2023/03/17 11:20:08;;;;;;;4.22;1.40;;;;;;;;;;5054103;28;20037;-59
2023/03/17 11:22:37;;;;;;;3.08;1.50;;;;;;;;;;5053801;28;20025;-59
2023/03/17 11:25:03;;;;;;;5.03;1.38;;;;;;;;;;5053907;28;20029;-59
2023/03/17 11:27:34;;;;;;;2.03;1.10;;;;;;;;;;5053761;28;20052;-59
2023/03/17 11:30:00;;;;;;;2.35;1.40;;;;;;;;;;5053440;28;20100;-59
2023/03/17 11:32:30;;;;;;;4.30;1.40;;;;;;;;;;5053393;28;20079;-59
2023/03/17 11:35:15;;;;;;;3.78;1.40;;;;;;;;;;5053186;28;20487;-59
2023/03/17 11:38:09;;;;;;;4.93;1.15;;;;;;;;;;5053144;28;20032;-59
2023/03/17 11:40:43;;;;;;;4.10;1.58;;;;;;;;;;5057875;28;20029;-59
2023/03/17 11:43:27;;;;;;;2.95;1.58;;;;;;;;;;5057561;28;20025;-59
2023/03/17 11:45:57;;;;;;;3.63;1.60;;;;;;;;;;5056217;28;20033;-59
2023/03/17 11:48:23;;;;;;;2.80;1.77;;;;;;;;;;5057631;28;20104;-59
2023/03/17 11:50:54;;;;;;;2.28;1.38;;;;;;;;;;5057499;28;20124;-59
2023/03/17 11:53:20;;;;;;;;;;;;;;;;;;5058465;28;20545;-59
2023/03/17 11:56:01;;;;;;;1.65;0.88;;;;;;;;;;5057396;28;19911;-59
2023/03/17 11:58:39;;;;;;;2.50;1.30;;;;;;;;;;5056580;28;20029;-59
2023/03/17 12:01:10;;;;;;;2.90;1.17;;;;;;;;;;5057052;28;20025;-57
2023/03/17 12:03:42;;;;;;;1.90;0.93;;;;;;;;;;5057099;28;20021;-59
2023/03/17 12:06:29;;;;;;;2.42;1.45;;;;;;;;;;5057138;28;20024;-59
2023/03/17 12:09:00;;;;;;;2.60;1.08;;;;;;;;;;5056937;28;20108;-59
2023/03/17 12:11:28;;;;;;;2.58;1.13;;;;;;;;;;5056623;28;20215;-59
2023/03/17 12:14:02;;;;;;;1.90;0.90;;;;;;;;;;5057157;28;20378;-59
2023/03/17 12:16:32;;;;;;;2.83;1.30;;;;;;;;;;5056561;28;20498;-58
2023/03/17 12:19:13;;;;;;;5.72;1.58;;;;;;;;;;5056515;28;20075;-57
2023/03/17 12:21:54;;;;;;;2.67;1.17;;;;;;;;;;5056452;28;20013;-57
2023/03/17 12:24:46;;;;;;;2.35;0.95;;;;;;;;;;5056419;28;20428;-57
2023/03/17 12:27:20;;;;;;;2.38;0.90;;;;;;;;;;5055172;28;20028;-57
2023/03/17 12:30:02;;;;;;;2.13;1.10;;;;;;;;;;5056245;28;20021;-57
2023/03/17 12:32:35;;;;;;;2.00;1.10;;;;;;;;;;5056140;28;20458;-57
2023/03/17 12:35:24;;;;;;;3.15;1.00;;;;;;;;;;5056568;28;20025;-57
2023/03/17 12:37:51;;;;;;;1.75;1.00;;;;;;;;;;5056376;28;20033;-57
2023/03/17 12:40:19;;;;;;;2.85;1.20;;;;;;;;;;5056899;28;20509;-57
2023/03/17 12:42:56;;;;;;;1.00;0.63;;;;;;;;;;5056538;28;20119;-57
2023/03/17 12:45:21;;;;;;;2.58;1.33;;;;;;;;;;5056517;28;20080;-57
2023/03/17 12:48:01;;;;;;;2.63;0.68;;;;;;;;;;5055950;28;20033;-57
2023/03/17 12:50:35;;;;;;;3.53;1.13;;;;;;;;;;5056019;28;20100;-57
2023/03/17 12:53:20;;;;;;;2.10;0.98;;;;;;;;;;5055893;28;20067;-57
2023/03/17 12:55:48;;;;;;;1.45;0.60;;;;;;;;;;5056843;28;20520;-59
2023/03/17 12:58:35;;;;;;;1.92;1.00;;;;;;;;;;5055677;28;20032;-57
2023/03/17 13:01:04;;;;;;;1.40;0.68;;;;;;;;;;5052164;28;20037;-57
2023/03/17 13:03:35;;;;;;;1.65;0.80;;;;;;;;;;5055832;28;20418;-57
2023/03/17 13:06:03;;;;;;;1.40;0.60;;;;;;;;;;5056498;28;20029;-57
2023/03/17 13:08:31;;;;;;;1.88;0.90;;;;;;;;;;5055627;28;20049;-57
2023/03/17 13:11:14;;;;;;;1.80;0.73;;;;;;;;;;5055510;28;20112;-57
2023/03/17 13:13:49;;;;;;;1.00;0.45;;;;;;;;;;5055056;28;20426;-57
2023/03/17 13:16:31;;;;;;;3.25;0.85;;;;;;;;;;5056025;28;20021;-57
2023/03/17 13:19:12;;;;;;;0.90;0.50;;;;;;;;;;5055896;28;20028;-57
2023/03/17 13:21:43;;;;;;;1.27;0.55;;;;;;;;;;5055275;28;20025;-60
2023/03/17 13:24:14;;;;;;;2.40;0.65;;;;;;;;;;5055305;28;20025;-58
2023/03/17 13:26:55;;;;;;;2.40;0.90;;;;;;;;;;5055620;28;20037;-59
2023/03/17 13:29:24;;;;;;;2.13;1.08;;;;;;;;;;5055121;28;20112;-57
2023/03/17 13:31:50;;;;;;;2.15;0.93;;;;;;;;;;5055351;28;20108;-58
2023/03/17 13:34:18;;;;;;;1.65;0.75;;;;;;;;;;5055135;28;20025;-58
2023/03/17 13:37:04;;;;;;;1.63;0.88;;;;;;;;;;5055286;28;20033;-58
2023/03/17 13:39:42;;;;;;;1.77;0.77;;;;;;;;;;5055472;28;20039;-58
2023/03/17 13:42:17;;;;;;;1.88;0.88;;;;;;;;;;5055127;28;20033;-58
2023/03/17 13:44:43;;;;;;;1.52;0.77;;;;;;;;;;5054812;28;20024;-58
2023/03/17 13:47:41;;;;;;;2.45;0.73;;;;;;;;;;5054572;28;20033;-60
2023/03/17 13:50:07;;;;;;;1.52;0.50;;;;;;;;;;5050181;28;20090;-58
2023/03/17 13:52:38;;;;;;;2.15;0.80;;;;;;;;;;5055150;28;20029;-58
2023/03/17 13:55:24;;;;;;;4.32;1.00;;;;;;;;;;5055065;28;20075;-58
2023/03/17 13:58:08;;;;;;;2.67;0.93;;;;;;;;;;5054229;28;20029;-58
2023/03/17 14:00:44;;;;;;;1.92;0.77;;;;;;;;;;5054960;28;20115;-58
2023/03/17 14:03:22;;;;;;;1.30;0.73;;;;;;;;;;5054780;28;20032;-58
2023/03/17 14:05:49;;;;;;;2.97;0.88;;;;;;;;;;5055007;28;20108;-58
2023/03/17 14:08:19;;;;;;;1.55;0.85;;;;;;;;;;5054373;28;20164;-58
2023/03/17 14:10:52;;;;;;;1.15;0.52;;;;;;;;;;5054894;28;20029;-58
2023/03/17 14:13:26;;;;;;;2.08;0.80;;;;;;;;;;5053781;28;20056;-58
2023/03/17 14:15:55;;;;;;;2.20;1.10;;;;;;;;;;5054458;28;20467;-58
2023/03/17 14:18:33;;;;;;;2.35;1.10;;;;;;;;;;5054018;28;20463;-58
2023/03/17 14:21:00;;;;;;;4.45;1.08;;;;;;;;;;5054659;28;20025;-58
2023/03/17 14:23:26;;;;;;;3.35;1.60;;;;;;;;;;5054122;28;20071;-58
2023/03/17 14:25:54;;;;;;;1.45;0.82;;;;;;;;;;5055056;28;20025;-58
2023/03/17 14:28:25;;;;;;;2.00;0.85;;;;;;;;;;5053693;28;20560;-58
2023/03/17 14:30:52;;;;;;;2.83;1.23;;;;;;;;;;5054174;28;20082;-58
2023/03/17 14:33:23;;;;;;;2.58;1.33;;;;;;;;;;5054352;28;20025;-58
2023/03/17 14:35:52;;;;;;;1.70;0.80;;;;;;;;;;5054086;28;20532;-59
2023/03/17 14:38:20;;;;;;;2.35;1.10;;;;;;;;;;5054176;28;20379;-58
2023/03/17 14:40:47;;;;;;;2.13;1.15;;;;;;;;;;5053976;28;20048;-58
2023/03/17 14:43:13;;;;;;;1.17;0.65;;;;;;;;;;5053647;28;20025;-58
2023/03/17 14:45:45;;;;;;;1.90;0.90;;;;;;;;;;5054284;28;20021;-58
2023/03/17 14:48:16;;;;;;;1.48;0.60;;;;;;;;;;5053965;28;20471;-58
2023/03/17 14:50:41;;;;;;;;;;;;;;;;;;5054310;28;20025;-58
2023/03/17 14:53:09;;;;;;;2.60;1.10;;;;;;;;;;5054560;28;20000;-58